Ana Sayfa
METAR-TAF:

METAR-TAF

Havaalanları :

Yellowstone Lake, Wyoming, Amerika Birleşik Devletleri

Enlem: 44-32-40N, Boylam: 110-25-16W, yükseklik: 2388 m

Güncel hava durumu gözlemi

Rapor saat 02:56 UTC de 22 dakika önce yapıldı.
Sakin rüzgar
Sıcaklık -15°C
Nem 85%
Basınç 1031 hPa

METAR: KP60 200256Z AUTO 00000KT M15/M17 A3046 RMK AO1 SLP406 T11501167 53005

Saat: 20:18 (03:18 UTC)


TAF: eksik

4.000'den fazla havaalanı için hava durumu gözlemleri ve tahminleri (METAR ve TAF raporları).

Kullanılabilir istasyonlar harita üzerinde sarı ve kırmızı noktalarla gösterilir.

İstasyonun adını görmek için fareyi noktanın üzerinde gezdirin.

Sonrasında hava gözlem ve tahminlerini görmek için tıklayın.

Haritayı değiştirmek için: yaklaştırmak için siyah artı işaretli yeşil düğmeye ve uzaklaştırmak için de eksi işaretli düğmeye hızla tıklayın; bitişik haritalar için yeşil okları kullanın.


METAR-TAF: